メインページ
METAR-TAF:

METAR-TAF

空港 :

ミネアポリス, ミネソタ州, アメリカ合衆国

ミネアポリス・セントポール国際空港

緯度: 44-52-59N, 経度: 093-13-44W, 海抜: 256m

現時点の気象観測

当レポートは18分前の10:53(UTC)に作成
南/南東の風 8kt
気温 22°C
湿度 88%
気圧 1003 hPa
視程: 16.1km
高度2100ftの千切れ雲あり
高度2800ftの曇り

METAR: KMSP 201053Z 16008KT 10SM BKN021 OVC028 22/20 A2961 RMK AO2 SLP021 T02170200

時間: 06:11 (11:11 UTC)

予報

当レポートは1時間33分前の09:38(UTC)に作成
予報は20日の 10時(UTC)から 21日の 12時(UTC)まで有効
の風 11kt
視程: 10km
高度3500ftの曇り
20日の 1400時(UTC)から
南西の風 8kt
視程: 10km
高度3000ftの千切れ雲あり
20日の 1800時(UTC)から
西/北西の風 10kt
視程: 10km
高度11000ftの雲はほとんどない
21日の 0000時(UTC)から
変向風 3kt
視程: 10km
晴天

TAF: KMSP 200938Z 2010/2112 18011KT P6SM OVC035 FM201400 23008KT P6SM BKN030 FM201800 29010KT P6SM FEW110 FM210000 VRB03KT P6SM SKC

4,000以上の空港の気象観測と天気予報(METAR報とTAF報)

利用可能な観測所は地図上に黄色い丸と赤い丸で示す。

丸の上にカーソルを重ねると観測所名を参照できる。

次にクリックすると気象観測と天気予報を参照できる。

マップの切り替え:黒色「×」印の緑ボタンをクリックして拡大、「-」印の緑ボタンをクリックして縮小、緑色の三角印をクリックして隣りの地図に切り替え


METAR-TAF: